sensor_id;sensor_type;location;lat;lon;timestamp;temperature;humidity
22161;DHT22;49035;48.812;11.762;2023-07-13T00:02:02;17.30;99.90
22161;DHT22;49035;48.812;11.762;2023-07-13T00:04:28;17.30;99.90
22161;DHT22;49035;48.812;11.762;2023-07-13T00:06:54;17.30;99.90
22161;DHT22;49035;48.812;11.762;2023-07-13T00:09:20;17.40;99.90
22161;DHT22;49035;48.812;11.762;2023-07-13T00:11:52;17.40;99.90
22161;DHT22;49035;48.812;11.762;2023-07-13T00:14:18;17.40;99.90
22161;DHT22;49035;48.812;11.762;2023-07-13T00:16:44;17.40;99.90
22161;DHT22;49035;48.812;11.762;2023-07-13T00:19:11;17.40;99.90
22161;DHT22;49035;48.812;11.762;2023-07-13T00:21:38;17.40;99.90
22161;DHT22;49035;48.812;11.762;2023-07-13T00:24:05;17.40;99.90
22161;DHT22;49035;48.812;11.762;2023-07-13T00:26:31;17.40;99.90
22161;DHT22;49035;48.812;11.762;2023-07-13T00:28:58;17.30;99.90
22161;DHT22;49035;48.812;11.762;2023-07-13T00:31:23;17.30;99.90
22161;DHT22;49035;48.812;11.762;2023-07-13T00:33:49;17.30;99.90
22161;DHT22;49035;48.812;11.762;2023-07-13T00:36:15;17.30;99.90
22161;DHT22;49035;48.812;11.762;2023-07-13T00:38:41;17.30;99.90
22161;DHT22;49035;48.812;11.762;2023-07-13T00:41:06;17.30;99.90
22161;DHT22;49035;48.812;11.762;2023-07-13T00:43:32;17.30;99.90
22161;DHT22;49035;48.812;11.762;2023-07-13T00:48:32;17.30;99.90
22161;DHT22;49035;48.812;11.762;2023-07-13T00:51:00;17.30;99.90
22161;DHT22;49035;48.812;11.762;2023-07-13T00:53:27;17.40;99.90
22161;DHT22;49035;48.812;11.762;2023-07-13T00:55:55;17.30;99.90
22161;DHT22;49035;48.812;11.762;2023-07-13T00:58:22;17.30;99.90
22161;DHT22;49035;48.812;11.762;2023-07-13T01:00:48;17.20;99.90
22161;DHT22;49035;48.812;11.762;2023-07-13T01:03:15;17.20;99.90
22161;DHT22;49035;48.812;11.762;2023-07-13T01:05:41;17.20;99.90
22161;DHT22;49035;48.812;11.762;2023-07-13T01:08:07;17.20;99.90
22161;DHT22;49035;48.812;11.762;2023-07-13T01:10:33;17.10;99.90
22161;DHT22;49035;48.812;11.762;2023-07-13T01:13:09;17.20;99.90
22161;DHT22;49035;48.812;11.762;2023-07-13T01:18:07;17.20;99.90
22161;DHT22;49035;48.812;11.762;2023-07-13T01:20:33;17.20;99.90
22161;DHT22;49035;48.812;11.762;2023-07-13T01:23:08;17.20;99.90
22161;DHT22;49035;48.812;11.762;2023-07-13T01:25:35;17.20;99.90
22161;DHT22;49035;48.812;11.762;2023-07-13T01:28:03;17.20;99.90
22161;DHT22;49035;48.812;11.762;2023-07-13T01:30:29;17.20;99.90
22161;DHT22;49035;48.812;11.762;2023-07-13T01:32:54;17.30;99.90
22161;DHT22;49035;48.812;11.762;2023-07-13T01:35:20;17.20;99.90
22161;DHT22;49035;48.812;11.762;2023-07-13T01:37:46;17.20;99.90
22161;DHT22;49035;48.812;11.762;2023-07-13T01:40:12;17.20;99.90
22161;DHT22;49035;48.812;11.762;2023-07-13T01:42:38;17.20;99.90
22161;DHT22;49035;48.812;11.762;2023-07-13T01:45:04;17.20;99.90
22161;DHT22;49035;48.812;11.762;2023-07-13T01:47:30;17.20;99.90
22161;DHT22;49035;48.812;11.762;2023-07-13T01:49:57;17.10;99.90
22161;DHT22;49035;48.812;11.762;2023-07-13T01:52:23;17.10;99.90
22161;DHT22;49035;48.812;11.762;2023-07-13T01:54:48;17.10;99.90
22161;DHT22;49035;48.812;11.762;2023-07-13T01:57:14;17.10;99.90
22161;DHT22;49035;48.812;11.762;2023-07-13T01:59:40;17.00;99.90
22161;DHT22;49035;48.812;11.762;2023-07-13T02:02:06;17.00;99.90
22161;DHT22;49035;48.812;11.762;2023-07-13T02:04:32;16.90;99.90
22161;DHT22;49035;48.812;11.762;2023-07-13T02:06:57;16.80;99.90
22161;DHT22;49035;48.812;11.762;2023-07-13T02:09:23;16.80;99.90
22161;DHT22;49035;48.812;11.762;2023-07-13T02:11:48;16.80;99.90
22161;DHT22;49035;48.812;11.762;2023-07-13T02:14:14;16.70;99.90
22161;DHT22;49035;48.812;11.762;2023-07-13T02:16:40;16.70;99.90
22161;DHT22;49035;48.812;11.762;2023-07-13T02:19:06;16.60;99.90
22161;DHT22;49035;48.812;11.762;2023-07-13T02:21:32;16.50;99.90
22161;DHT22;49035;48.812;11.762;2023-07-13T02:23:57;16.50;99.90
22161;DHT22;49035;48.812;11.762;2023-07-13T02:26:23;16.50;99.90
22161;DHT22;49035;48.812;11.762;2023-07-13T02:28:48;16.50;99.90
22161;DHT22;49035;48.812;11.762;2023-07-13T02:31:15;16.50;99.90
22161;DHT22;49035;48.812;11.762;2023-07-13T02:33:41;16.50;99.90
22161;DHT22;49035;48.812;11.762;2023-07-13T02:36:07;16.60;99.90
22161;DHT22;49035;48.812;11.762;2023-07-13T02:38:33;16.60;99.90
22161;DHT22;49035;48.812;11.762;2023-07-13T02:41:00;16.60;99.90
22161;DHT22;49035;48.812;11.762;2023-07-13T02:43:27;16.60;99.90
22161;DHT22;49035;48.812;11.762;2023-07-13T02:45:52;16.60;99.90
22161;DHT22;49035;48.812;11.762;2023-07-13T02:48:18;16.60;99.90
22161;DHT22;49035;48.812;11.762;2023-07-13T02:50:45;16.60;99.90
22161;DHT22;49035;48.812;11.762;2023-07-13T02:53:10;16.50;99.90
22161;DHT22;49035;48.812;11.762;2023-07-13T02:55:36;16.50;99.90
22161;DHT22;49035;48.812;11.762;2023-07-13T02:58:02;16.50;99.90
22161;DHT22;49035;48.812;11.762;2023-07-13T03:00:27;16.60;99.90
22161;DHT22;49035;48.812;11.762;2023-07-13T03:02:53;16.60;99.90
22161;DHT22;49035;48.812;11.762;2023-07-13T03:05:22;16.60;99.90
22161;DHT22;49035;48.812;11.762;2023-07-13T03:07:47;16.60;99.90
22161;DHT22;49035;48.812;11.762;2023-07-13T03:10:13;16.60;99.90
22161;DHT22;49035;48.812;11.762;2023-07-13T03:12:38;16.60;99.90
22161;DHT22;49035;48.812;11.762;2023-07-13T03:15:04;16.60;99.90
22161;DHT22;49035;48.812;11.762;2023-07-13T03:17:30;16.60;99.90
22161;DHT22;49035;48.812;11.762;2023-07-13T03:19:56;16.60;99.90
22161;DHT22;49035;48.812;11.762;2023-07-13T03:22:22;16.60;99.90
22161;DHT22;49035;48.812;11.762;2023-07-13T03:24:47;16.50;99.90
22161;DHT22;49035;48.812;11.762;2023-07-13T03:27:14;16.50;99.90
22161;DHT22;49035;48.812;11.762;2023-07-13T03:29:40;16.50;99.90
22161;DHT22;49035;48.812;11.762;2023-07-13T03:32:06;16.50;99.90
22161;DHT22;49035;48.812;11.762;2023-07-13T03:34:32;16.50;99.90
22161;DHT22;49035;48.812;11.762;2023-07-13T03:36:58;16.60;99.90
22161;DHT22;49035;48.812;11.762;2023-07-13T03:39:23;16.60;99.90
22161;DHT22;49035;48.812;11.762;2023-07-13T03:41:49;16.70;99.90
22161;DHT22;49035;48.812;11.762;2023-07-13T03:44:18;16.70;99.90
22161;DHT22;49035;48.812;11.762;2023-07-13T03:46:44;16.60;99.90
22161;DHT22;49035;48.812;11.762;2023-07-13T03:49:10;16.60;99.90
22161;DHT22;49035;48.812;11.762;2023-07-13T03:51:35;16.60;99.90
22161;DHT22;49035;48.812;11.762;2023-07-13T03:54:01;16.60;99.90
22161;DHT22;49035;48.812;11.762;2023-07-13T03:56:28;16.60;99.90
22161;DHT22;49035;48.812;11.762;2023-07-13T03:58:54;16.70;99.90
22161;DHT22;49035;48.812;11.762;2023-07-13T04:01:22;16.80;99.90
22161;DHT22;49035;48.812;11.762;2023-07-13T04:03:48;16.80;99.90
22161;DHT22;49035;48.812;11.762;2023-07-13T04:06:27;16.90;99.90
22161;DHT22;49035;48.812;11.762;2023-07-13T04:08:57;17.00;99.90
22161;DHT22;49035;48.812;11.762;2023-07-13T04:11:24;17.10;99.90
22161;DHT22;49035;48.812;11.762;2023-07-13T04:13:51;17.20;99.90
22161;DHT22;49035;48.812;11.762;2023-07-13T04:16:18;17.20;99.90
22161;DHT22;49035;48.812;11.762;2023-07-13T04:18:44;17.30;99.90
22161;DHT22;49035;48.812;11.762;2023-07-13T04:21:11;17.30;99.90
22161;DHT22;49035;48.812;11.762;2023-07-13T04:23:37;17.40;99.90
22161;DHT22;49035;48.812;11.762;2023-07-13T04:26:04;17.70;99.90
22161;DHT22;49035;48.812;11.762;2023-07-13T04:28:30;17.90;99.90
22161;DHT22;49035;48.812;11.762;2023-07-13T04:30:55;18.00;99.90
22161;DHT22;49035;48.812;11.762;2023-07-13T04:33:21;17.90;99.90
22161;DHT22;49035;48.812;11.762;2023-07-13T04:35:51;17.70;99.90
22161;DHT22;49035;48.812;11.762;2023-07-13T04:38:22;17.70;99.90
22161;DHT22;49035;48.812;11.762;2023-07-13T04:40:48;17.70;99.90
22161;DHT22;49035;48.812;11.762;2023-07-13T04:43:14;17.60;99.90
22161;DHT22;49035;48.812;11.762;2023-07-13T04:45:41;17.60;99.90
22161;DHT22;49035;48.812;11.762;2023-07-13T04:48:06;17.70;99.90
22161;DHT22;49035;48.812;11.762;2023-07-13T04:50:32;17.70;99.90
22161;DHT22;49035;48.812;11.762;2023-07-13T04:52:57;17.70;99.90
22161;DHT22;49035;48.812;11.762;2023-07-13T04:55:24;17.70;99.90
22161;DHT22;49035;48.812;11.762;2023-07-13T04:57:51;17.70;99.90
22161;DHT22;49035;48.812;11.762;2023-07-13T05:00:16;17.80;99.90
22161;DHT22;49035;48.812;11.762;2023-07-13T05:02:44;17.90;99.90
22161;DHT22;49035;48.812;11.762;2023-07-13T05:05:11;18.00;99.90
22161;DHT22;49035;48.812;11.762;2023-07-13T05:07:36;18.20;99.90
22161;DHT22;49035;48.812;11.762;2023-07-13T05:10:03;18.20;99.90
22161;DHT22;49035;48.812;11.762;2023-07-13T05:12:29;18.40;99.90
22161;DHT22;49035;48.812;11.762;2023-07-13T05:14:55;18.60;99.90
22161;DHT22;49035;48.812;11.762;2023-07-13T05:17:21;18.70;99.90
22161;DHT22;49035;48.812;11.762;2023-07-13T05:19:47;18.80;99.90
22161;DHT22;49035;48.812;11.762;2023-07-13T05:22:12;18.90;99.90
22161;DHT22;49035;48.812;11.762;2023-07-13T05:27:08;18.90;99.90
22161;DHT22;49035;48.812;11.762;2023-07-13T05:29:34;19.00;99.90
22161;DHT22;49035;48.812;11.762;2023-07-13T05:31:59;19.00;99.90
22161;DHT22;49035;48.812;11.762;2023-07-13T05:34:25;19.10;99.90
22161;DHT22;49035;48.812;11.762;2023-07-13T05:36:51;19.20;99.90
22161;DHT22;49035;48.812;11.762;2023-07-13T05:39:18;19.20;99.90
22161;DHT22;49035;48.812;11.762;2023-07-13T05:41:44;19.20;99.90
22161;DHT22;49035;48.812;11.762;2023-07-13T05:44:10;19.30;99.90
22161;DHT22;49035;48.812;11.762;2023-07-13T05:46:35;19.40;99.90
22161;DHT22;49035;48.812;11.762;2023-07-13T05:49:01;19.30;99.90
22161;DHT22;49035;48.812;11.762;2023-07-13T05:51:26;19.30;99.90
22161;DHT22;49035;48.812;11.762;2023-07-13T05:53:52;19.30;99.90
22161;DHT22;49035;48.812;11.762;2023-07-13T05:56:18;19.30;99.90
22161;DHT22;49035;48.812;11.762;2023-07-13T05:58:43;19.40;99.90
22161;DHT22;49035;48.812;11.762;2023-07-13T06:01:11;19.70;99.90
22161;DHT22;49035;48.812;11.762;2023-07-13T06:03:37;20.10;99.90
22161;DHT22;49035;48.812;11.762;2023-07-13T06:06:06;20.60;99.90
22161;DHT22;49035;48.812;11.762;2023-07-13T06:08:33;20.80;99.90
22161;DHT22;49035;48.812;11.762;2023-07-13T06:11:20;20.80;99.90
22161;DHT22;49035;48.812;11.762;2023-07-13T06:13:46;20.90;99.90
22161;DHT22;49035;48.812;11.762;2023-07-13T06:16:12;21.00;99.90
22161;DHT22;49035;48.812;11.762;2023-07-13T06:18:39;20.90;99.90
22161;DHT22;49035;48.812;11.762;2023-07-13T06:21:07;20.90;99.90
22161;DHT22;49035;48.812;11.762;2023-07-13T06:23:33;21.00;99.90
22161;DHT22;49035;48.812;11.762;2023-07-13T06:25:59;21.10;99.90
22161;DHT22;49035;48.812;11.762;2023-07-13T06:28:24;21.60;99.90
22161;DHT22;49035;48.812;11.762;2023-07-13T06:30:50;22.60;99.90
22161;DHT22;49035;48.812;11.762;2023-07-13T06:33:15;23.80;99.90
22161;DHT22;49035;48.812;11.762;2023-07-13T06:35:42;24.50;99.90
22161;DHT22;49035;48.812;11.762;2023-07-13T06:38:07;24.20;99.60
22161;DHT22;49035;48.812;11.762;2023-07-13T06:40:33;24.20;99.10
22161;DHT22;49035;48.812;11.762;2023-07-13T06:42:58;24.20;98.00
22161;DHT22;49035;48.812;11.762;2023-07-13T06:45:24;24.50;99.90
22161;DHT22;49035;48.812;11.762;2023-07-13T06:47:49;24.90;99.10
22161;DHT22;49035;48.812;11.762;2023-07-13T06:50:15;25.40;98.40
22161;DHT22;49035;48.812;11.762;2023-07-13T06:52:41;26.00;95.70
22161;DHT22;49035;48.812;11.762;2023-07-13T06:55:06;26.10;92.20
22161;DHT22;49035;48.812;11.762;2023-07-13T06:57:32;25.80;91.40
22161;DHT22;49035;48.812;11.762;2023-07-13T06:59:58;25.50;92.70
22161;DHT22;49035;48.812;11.762;2023-07-13T07:02:23;25.70;93.00
22161;DHT22;49035;48.812;11.762;2023-07-13T07:04:49;25.90;91.60
22161;DHT22;49035;48.812;11.762;2023-07-13T07:07:15;25.90;94.10
22161;DHT22;49035;48.812;11.762;2023-07-13T07:09:41;26.60;93.60
22161;DHT22;49035;48.812;11.762;2023-07-13T07:12:06;27.10;86.20
22161;DHT22;49035;48.812;11.762;2023-07-13T07:14:32;26.70;89.60
22161;DHT22;49035;48.812;11.762;2023-07-13T07:16:59;27.00;89.40
22161;DHT22;49035;48.812;11.762;2023-07-13T07:19:25;26.60;86.70
22161;DHT22;49035;48.812;11.762;2023-07-13T07:21:51;26.70;90.70
22161;DHT22;49035;48.812;11.762;2023-07-13T07:24:16;26.60;85.90
22161;DHT22;49035;48.812;11.762;2023-07-13T07:26:42;26.90;87.00
22161;DHT22;49035;48.812;11.762;2023-07-13T07:29:07;26.60;84.30
22161;DHT22;49035;48.812;11.762;2023-07-13T07:31:33;25.60;86.70
22161;DHT22;49035;48.812;11.762;2023-07-13T07:33:58;25.40;90.90
22161;DHT22;49035;48.812;11.762;2023-07-13T07:36:24;25.20;88.70
22161;DHT22;49035;48.812;11.762;2023-07-13T07:38:49;25.70;85.30
22161;DHT22;49035;48.812;11.762;2023-07-13T07:41:15;25.20;85.90
22161;DHT22;49035;48.812;11.762;2023-07-13T07:43:41;24.70;84.50
22161;DHT22;49035;48.812;11.762;2023-07-13T07:46:06;24.40;88.10
22161;DHT22;49035;48.812;11.762;2023-07-13T07:48:32;24.00;90.50
22161;DHT22;49035;48.812;11.762;2023-07-13T07:50:58;23.60;90.20
22161;DHT22;49035;48.812;11.762;2023-07-13T07:53:23;23.20;90.60
22161;DHT22;49035;48.812;11.762;2023-07-13T07:55:49;22.20;92.10
22161;DHT22;49035;48.812;11.762;2023-07-13T07:58:15;21.80;93.40
22161;DHT22;49035;48.812;11.762;2023-07-13T08:00:40;21.40;96.30
22161;DHT22;49035;48.812;11.762;2023-07-13T08:03:06;21.70;99.70
22161;DHT22;49035;48.812;11.762;2023-07-13T08:05:32;22.30;97.00
22161;DHT22;49035;48.812;11.762;2023-07-13T08:08:00;22.80;95.00
22161;DHT22;49035;48.812;11.762;2023-07-13T08:10:25;23.50;97.20
22161;DHT22;49035;48.812;11.762;2023-07-13T08:12:51;24.00;94.10
22161;DHT22;49035;48.812;11.762;2023-07-13T08:15:17;24.80;92.90
22161;DHT22;49035;48.812;11.762;2023-07-13T08:17:43;25.30;91.00
22161;DHT22;49035;48.812;11.762;2023-07-13T08:20:09;25.20;90.00
22161;DHT22;49035;48.812;11.762;2023-07-13T08:22:35;25.30;86.50
22161;DHT22;49035;48.812;11.762;2023-07-13T08:25:00;25.00;81.40
22161;DHT22;49035;48.812;11.762;2023-07-13T08:27:28;24.30;90.40
22161;DHT22;49035;48.812;11.762;2023-07-13T08:29:54;24.80;91.20
22161;DHT22;49035;48.812;11.762;2023-07-13T08:32:21;25.40;87.10
22161;DHT22;49035;48.812;11.762;2023-07-13T08:34:47;25.70;83.00
22161;DHT22;49035;48.812;11.762;2023-07-13T08:37:13;25.10;78.80
22161;DHT22;49035;48.812;11.762;2023-07-13T08:39:39;24.30;82.10
22161;DHT22;49035;48.812;11.762;2023-07-13T08:44:51;23.60;87.90
22161;DHT22;49035;48.812;11.762;2023-07-13T08:47:22;23.80;92.40
22161;DHT22;49035;48.812;11.762;2023-07-13T08:49:49;24.70;88.20
22161;DHT22;49035;48.812;11.762;2023-07-13T08:52:39;25.20;85.40
22161;DHT22;49035;48.812;11.762;2023-07-13T08:55:13;25.60;86.70
22161;DHT22;49035;48.812;11.762;2023-07-13T08:57:41;26.00;89.20
22161;DHT22;49035;48.812;11.762;2023-07-13T09:00:13;26.70;82.60
22161;DHT22;49035;48.812;11.762;2023-07-13T09:02:59;27.40;75.60
22161;DHT22;49035;48.812;11.762;2023-07-13T09:05:41;27.20;78.00
22161;DHT22;49035;48.812;11.762;2023-07-13T09:11:45;29.00;66.20
22161;DHT22;49035;48.812;11.762;2023-07-13T09:14:34;29.40;65.30
22161;DHT22;49035;48.812;11.762;2023-07-13T09:17:04;29.20;62.20
22161;DHT22;49035;48.812;11.762;2023-07-13T09:19:34;28.50;62.80
22161;DHT22;49035;48.812;11.762;2023-07-13T09:22:02;28.90;61.10
22161;DHT22;49035;48.812;11.762;2023-07-13T09:27:23;28.30;60.40
22161;DHT22;49035;48.812;11.762;2023-07-13T09:32:39;26.70;66.30
22161;DHT22;49035;48.812;11.762;2023-07-13T09:35:11;26.40;66.70
22161;DHT22;49035;48.812;11.762;2023-07-13T09:37:38;26.40;67.10
22161;DHT22;49035;48.812;11.762;2023-07-13T09:40:11;26.70;64.30
22161;DHT22;49035;48.812;11.762;2023-07-13T09:42:39;26.30;62.80
22161;DHT22;49035;48.812;11.762;2023-07-13T09:45:05;25.60;65.60
22161;DHT22;49035;48.812;11.762;2023-07-13T09:47:39;25.90;70.80
22161;DHT22;49035;48.812;11.762;2023-07-13T09:50:15;26.40;66.90
22161;DHT22;49035;48.812;11.762;2023-07-13T09:52:49;26.70;60.10
22161;DHT22;49035;48.812;11.762;2023-07-13T09:55:36;26.70;60.50
22161;DHT22;49035;48.812;11.762;2023-07-13T09:58:25;26.70;59.10
22161;DHT22;49035;48.812;11.762;2023-07-13T10:01:00;25.90;55.00
22161;DHT22;49035;48.812;11.762;2023-07-13T10:03:34;25.80;56.90
22161;DHT22;49035;48.812;11.762;2023-07-13T10:06:16;25.50;56.40
22161;DHT22;49035;48.812;11.762;2023-07-13T10:08:44;25.20;59.80
22161;DHT22;49035;48.812;11.762;2023-07-13T10:13:43;25.50;62.50
22161;DHT22;49035;48.812;11.762;2023-07-13T10:16:09;26.10;57.60
22161;DHT22;49035;48.812;11.762;2023-07-13T10:18:55;26.30;58.80
22161;DHT22;49035;48.812;11.762;2023-07-13T10:21:26;26.30;59.70
22161;DHT22;49035;48.812;11.762;2023-07-13T10:24:00;26.60;59.80
22161;DHT22;49035;48.812;11.762;2023-07-13T10:26:32;26.10;60.60
22161;DHT22;49035;48.812;11.762;2023-07-13T10:29:04;26.40;63.90
22161;DHT22;49035;48.812;11.762;2023-07-13T10:31:32;27.00;60.00
22161;DHT22;49035;48.812;11.762;2023-07-13T10:33:59;27.10;58.30
22161;DHT22;49035;48.812;11.762;2023-07-13T10:36:33;26.80;56.20
22161;DHT22;49035;48.812;11.762;2023-07-13T10:39:02;26.80;58.70
22161;DHT22;49035;48.812;11.762;2023-07-13T10:41:30;27.10;59.90
22161;DHT22;49035;48.812;11.762;2023-07-13T10:43:57;27.40;61.40
22161;DHT22;49035;48.812;11.762;2023-07-13T10:46:25;27.10;58.20
22161;DHT22;49035;48.812;11.762;2023-07-13T10:48:58;26.60;60.20
22161;DHT22;49035;48.812;11.762;2023-07-13T10:51:25;26.60;61.40
22161;DHT22;49035;48.812;11.762;2023-07-13T10:54:20;26.40;57.20
22161;DHT22;49035;48.812;11.762;2023-07-13T10:56:50;26.40;59.10
22161;DHT22;49035;48.812;11.762;2023-07-13T10:59:25;26.20;58.50
22161;DHT22;49035;48.812;11.762;2023-07-13T11:04:40;26.20;62.20
22161;DHT22;49035;48.812;11.762;2023-07-13T11:07:18;26.20;53.30
22161;DHT22;49035;48.812;11.762;2023-07-13T11:09:52;25.20;55.40
22161;DHT22;49035;48.812;11.762;2023-07-13T11:22:53;26.00;61.80
22161;DHT22;49035;48.812;11.762;2023-07-13T11:25:33;26.60;56.10
22161;DHT22;49035;48.812;11.762;2023-07-13T11:33:25;27.70;57.40
22161;DHT22;49035;48.812;11.762;2023-07-13T11:35:57;28.10;59.50
22161;DHT22;49035;48.812;11.762;2023-07-13T11:41:10;28.00;55.00
22161;DHT22;49035;48.812;11.762;2023-07-13T11:43:38;27.40;53.20
22161;DHT22;49035;48.812;11.762;2023-07-13T11:48:46;26.20;55.70
22161;DHT22;49035;48.812;11.762;2023-07-13T11:51:28;26.40;60.50
22161;DHT22;49035;48.812;11.762;2023-07-13T11:53:55;27.10;59.50
22161;DHT22;49035;48.812;11.762;2023-07-13T11:56:22;27.90;58.90
22161;DHT22;49035;48.812;11.762;2023-07-13T11:58:54;27.60;54.90
22161;DHT22;49035;48.812;11.762;2023-07-13T12:01:24;27.20;57.50
22161;DHT22;49035;48.812;11.762;2023-07-13T12:03:51;27.20;55.30
22161;DHT22;49035;48.812;11.762;2023-07-13T12:06:32;26.90;57.70
22161;DHT22;49035;48.812;11.762;2023-07-13T12:09:02;26.40;56.60
22161;DHT22;49035;48.812;11.762;2023-07-13T12:11:29;26.30;60.50
22161;DHT22;49035;48.812;11.762;2023-07-13T12:13:55;26.00;57.20
22161;DHT22;49035;48.812;11.762;2023-07-13T12:16:31;26.40;55.50
22161;DHT22;49035;48.812;11.762;2023-07-13T12:18:59;26.60;54.50
22161;DHT22;49035;48.812;11.762;2023-07-13T12:21:33;26.60;55.90
22161;DHT22;49035;48.812;11.762;2023-07-13T12:24:00;27.30;53.20
22161;DHT22;49035;48.812;11.762;2023-07-13T12:26:30;27.80;55.10
22161;DHT22;49035;48.812;11.762;2023-07-13T12:28:58;28.20;56.30
22161;DHT22;49035;48.812;11.762;2023-07-13T12:31:37;28.20;53.70
22161;DHT22;49035;48.812;11.762;2023-07-13T12:36:45;28.20;57.60
22161;DHT22;49035;48.812;11.762;2023-07-13T12:39:17;28.80;55.80
22161;DHT22;49035;48.812;11.762;2023-07-13T12:41:44;28.80;57.60
22161;DHT22;49035;48.812;11.762;2023-07-13T12:44:31;29.20;58.30
22161;DHT22;49035;48.812;11.762;2023-07-13T12:47:05;28.90;52.20
22161;DHT22;49035;48.812;11.762;2023-07-13T12:49:33;29.00;51.30
22161;DHT22;49035;48.812;11.762;2023-07-13T12:52:09;28.40;52.60
22161;DHT22;49035;48.812;11.762;2023-07-13T12:54:39;28.40;51.30
22161;DHT22;49035;48.812;11.762;2023-07-13T12:57:05;27.80;57.30
22161;DHT22;49035;48.812;11.762;2023-07-13T12:59:34;27.90;54.60
22161;DHT22;49035;48.812;11.762;2023-07-13T13:02:02;26.90;53.80
22161;DHT22;49035;48.812;11.762;2023-07-13T13:04:28;26.80;55.30
22161;DHT22;49035;48.812;11.762;2023-07-13T13:07:02;26.80;53.20
22161;DHT22;49035;48.812;11.762;2023-07-13T13:09:28;27.30;58.20
22161;DHT22;49035;48.812;11.762;2023-07-13T13:11:53;28.20;54.10
22161;DHT22;49035;48.812;11.762;2023-07-13T13:14:19;28.90;50.90
22161;DHT22;49035;48.812;11.762;2023-07-13T13:16:49;29.50;53.10
22161;DHT22;49035;48.812;11.762;2023-07-13T13:19:25;30.00;51.70
22161;DHT22;49035;48.812;11.762;2023-07-13T13:21:52;30.10;48.40
22161;DHT22;49035;48.812;11.762;2023-07-13T13:24:22;30.10;51.70
22161;DHT22;49035;48.812;11.762;2023-07-13T13:26:50;30.40;52.00
22161;DHT22;49035;48.812;11.762;2023-07-13T13:29:19;30.30;50.60
22161;DHT22;49035;48.812;11.762;2023-07-13T13:31:45;29.60;50.00
22161;DHT22;49035;48.812;11.762;2023-07-13T13:34:12;29.40;49.50
22161;DHT22;49035;48.812;11.762;2023-07-13T13:36:38;29.70;49.90
22161;DHT22;49035;48.812;11.762;2023-07-13T13:41:52;30.90;49.50
22161;DHT22;49035;48.812;11.762;2023-07-13T13:44:19;31.40;44.90
22161;DHT22;49035;48.812;11.762;2023-07-13T13:46:47;31.00;44.10
22161;DHT22;49035;48.812;11.762;2023-07-13T13:49:18;30.10;44.60
22161;DHT22;49035;48.812;11.762;2023-07-13T13:51:45;28.80;47.60
22161;DHT22;49035;48.812;11.762;2023-07-13T13:54:15;28.30;50.00
22161;DHT22;49035;48.812;11.762;2023-07-13T13:56:43;27.50;48.80
22161;DHT22;49035;48.812;11.762;2023-07-13T13:59:09;27.30;50.30
22161;DHT22;49035;48.812;11.762;2023-07-13T14:01:35;26.90;49.40
22161;DHT22;49035;48.812;11.762;2023-07-13T14:04:01;26.80;50.30
22161;DHT22;49035;48.812;11.762;2023-07-13T14:06:27;27.00;51.10
22161;DHT22;49035;48.812;11.762;2023-07-13T14:08:53;27.80;51.00
22161;DHT22;49035;48.812;11.762;2023-07-13T14:11:21;28.60;51.80
22161;DHT22;49035;48.812;11.762;2023-07-13T14:13:56;28.80;51.90
22161;DHT22;49035;48.812;11.762;2023-07-13T14:16:27;28.50;48.10
22161;DHT22;49035;48.812;11.762;2023-07-13T14:18:55;28.50;49.80
22161;DHT22;49035;48.812;11.762;2023-07-13T14:21:24;28.20;49.90
22161;DHT22;49035;48.812;11.762;2023-07-13T14:23:49;27.30;50.90
22161;DHT22;49035;48.812;11.762;2023-07-13T14:26:26;27.80;51.10
22161;DHT22;49035;48.812;11.762;2023-07-13T14:28:55;28.20;51.50
22161;DHT22;49035;48.812;11.762;2023-07-13T14:31:22;28.60;50.60
22161;DHT22;49035;48.812;11.762;2023-07-13T14:33:48;29.00;49.40
22161;DHT22;49035;48.812;11.762;2023-07-13T14:36:33;28.60;44.50
22161;DHT22;49035;48.812;11.762;2023-07-13T14:39:05;28.40;44.70
22161;DHT22;49035;48.812;11.762;2023-07-13T14:41:35;29.00;49.60
22161;DHT22;49035;48.812;11.762;2023-07-13T14:44:00;29.40;45.50
22161;DHT22;49035;48.812;11.762;2023-07-13T14:46:32;28.40;48.00
22161;DHT22;49035;48.812;11.762;2023-07-13T14:49:12;28.00;47.00
22161;DHT22;49035;48.812;11.762;2023-07-13T14:51:38;27.70;45.10
22161;DHT22;49035;48.812;11.762;2023-07-13T14:54:05;26.80;48.80
22161;DHT22;49035;48.812;11.762;2023-07-13T14:56:33;26.20;47.80
22161;DHT22;49035;48.812;11.762;2023-07-13T14:58:58;25.70;49.10
22161;DHT22;49035;48.812;11.762;2023-07-13T15:01:25;25.80;49.70
22161;DHT22;49035;48.812;11.762;2023-07-13T15:03:52;26.60;50.10
22161;DHT22;49035;48.812;11.762;2023-07-13T15:06:22;27.40;50.40
22161;DHT22;49035;48.812;11.762;2023-07-13T15:08:47;28.30;45.90
22161;DHT22;49035;48.812;11.762;2023-07-13T15:11:14;29.30;46.10
22161;DHT22;49035;48.812;11.762;2023-07-13T15:13:41;29.30;42.10
22161;DHT22;49035;48.812;11.762;2023-07-13T15:16:17;29.50;46.30
22161;DHT22;49035;48.812;11.762;2023-07-13T15:18:44;29.40;42.30
22161;DHT22;49035;48.812;11.762;2023-07-13T15:21:13;29.90;44.90
22161;DHT22;49035;48.812;11.762;2023-07-13T15:23:40;30.60;43.00
22161;DHT22;49035;48.812;11.762;2023-07-13T15:26:11;31.40;44.00
22161;DHT22;49035;48.812;11.762;2023-07-13T15:28:37;30.90;39.80
22161;DHT22;49035;48.812;11.762;2023-07-13T15:31:17;30.50;41.70
22161;DHT22;49035;48.812;11.762;2023-07-13T15:33:43;28.70;43.20
22161;DHT22;49035;48.812;11.762;2023-07-13T15:36:08;28.60;45.80
22161;DHT22;49035;48.812;11.762;2023-07-13T15:38:35;28.90;42.80
22161;DHT22;49035;48.812;11.762;2023-07-13T15:41:14;29.80;44.00
22161;DHT22;49035;48.812;11.762;2023-07-13T15:43:41;31.70;41.00
22161;DHT22;49035;48.812;11.762;2023-07-13T15:46:07;31.90;37.80
22161;DHT22;49035;48.812;11.762;2023-07-13T15:48:32;31.20;38.90
22161;DHT22;49035;48.812;11.762;2023-07-13T15:51:01;30.30;42.50
22161;DHT22;49035;48.812;11.762;2023-07-13T15:53:32;29.10;43.40
22161;DHT22;49035;48.812;11.762;2023-07-13T15:55:59;29.80;42.30
22161;DHT22;49035;48.812;11.762;2023-07-13T15:58:25;31.10;40.80
22161;DHT22;49035;48.812;11.762;2023-07-13T16:00:51;32.00;40.00
22161;DHT22;49035;48.812;11.762;2023-07-13T16:03:19;32.70;39.10
22161;DHT22;49035;48.812;11.762;2023-07-13T16:05:45;33.20;38.60
22161;DHT22;49035;48.812;11.762;2023-07-13T16:08:27;34.10;36.20
22161;DHT22;49035;48.812;11.762;2023-07-13T16:10:53;33.30;36.10
22161;DHT22;49035;48.812;11.762;2023-07-13T16:13:20;32.50;38.10